IBE210K KJFK-LPPT
Flight info
| Callsign | IBE210K |
|---|---|
| Flight time | N/A |
| Altitude | 39000 |
| Route | SHIPP Y487 ISLES DCT JENYY DCT JOBOC/M081F390 DCT 42N050W 42N040W 4030N03000W 3930N02000W DCT GUNTI/N0475F390 DCT LAZET |
| Aircraft | A333/H-SDE3GHIJ2J3J5M1RVWXY/LB2D1 |
Departure
| Time | 2026-05-09 15:14 |
|---|---|
| Airport | John F. Kennedy International Airport (KJFK) |
Arrival
| Time | N/A |
|---|---|
| Airport | Lisbon Humberto Delgado Airport (LPPT) |
| Time | Latitude | Longitude | Altitude | Speed | Heading |
|---|---|---|---|---|---|
| 2026-05-09 15:02 | 40.64435 | -73.77975 | 27 ft | 0 kts | 231° |
| 2026-05-09 15:06 | 40.64464 | -73.77928 | 28 ft | 3 kts | 231° |
| 2026-05-09 15:06 | 40.64472 | -73.77913 | 30 ft | 3 kts | 231° |
| 2026-05-09 15:06 | 40.64480 | -73.77900 | 30 ft | 0 kts | 231° |
| 2026-05-09 15:07 | 40.64480 | -73.77901 | 30 ft | 1 kts | 231° |
| 2026-05-09 15:07 | 40.64478 | -73.77901 | 30 ft | 0 kts | 219° |
| 2026-05-09 15:07 | 40.64475 | -73.77902 | 30 ft | 0 kts | 204° |
| 2026-05-09 15:07 | 40.64471 | -73.77901 | 28 ft | 0 kts | 183° |
| 2026-05-09 15:08 | 40.64466 | -73.77893 | 28 ft | 1 kts | 136° |
| 2026-05-09 15:08 | 40.64466 | -73.77891 | 24 ft | 0 kts | 127° |
| 2026-05-09 15:09 | 40.64399 | -73.77773 | 30 ft | 20 kts | 126° |
| 2026-05-09 15:10 | 40.64198 | -73.77168 | 29 ft | 25 kts | 30° |
| 2026-05-09 15:11 | 40.64345 | -73.77053 | 27 ft | 21 kts | 30° |
| 2026-05-09 15:11 | 40.64488 | -73.76988 | 25 ft | 22 kts | 15° |
| 2026-05-09 15:11 | 40.64592 | -73.76926 | 26 ft | 10 kts | 30° |
| 2026-05-09 15:11 | 40.64655 | -73.76878 | 25 ft | 16 kts | 30° |
| 2026-05-09 15:12 | 40.64785 | -73.76770 | 30 ft | 16 kts | 32° |
| 2026-05-09 15:12 | 40.64909 | -73.76673 | 28 ft | 27 kts | 31° |
| 2026-05-09 15:12 | 40.65046 | -73.76565 | 30 ft | 13 kts | 31° |
| 2026-05-09 15:12 | 40.65091 | -73.76497 | 29 ft | 9 kts | 81° |
| 2026-05-09 15:13 | 40.65066 | -73.76402 | 26 ft | 25 kts | 120° |
| 2026-05-09 15:13 | 40.65003 | -73.76368 | 29 ft | 8 kts | 190° |
| 2026-05-09 15:13 | 40.64933 | -73.76431 | 31 ft | 17 kts | 212° |
| 2026-05-09 15:13 | 40.64608 | -73.76686 | 25 ft | 96 kts | 211° |
| 2026-05-09 15:14 | 40.63812 | -73.77308 | 31 ft | 167 kts | 210° |
| 2026-05-09 15:14 | 40.62716 | -73.78193 | 464 ft | 200 kts | 208° |
| 2026-05-09 15:14 | 40.61411 | -73.79177 | 1071 ft | 230 kts | 210° |
| 2026-05-09 15:14 | 40.59960 | -73.80246 | 1817 ft | 237 kts | 211° |
| 2026-05-09 15:15 | 40.58611 | -73.81176 | 2727 ft | 208 kts | 207° |
| 2026-05-09 15:15 | 40.57231 | -73.81571 | 3577 ft | 202 kts | 187° |
| 2026-05-09 15:15 | 40.55874 | -73.81130 | 4375 ft | 206 kts | 160° |
| 2026-05-09 15:15 | 40.54874 | -73.79760 | 5147 ft | 217 kts | 123° |
| 2026-05-09 15:16 | 40.54745 | -73.77744 | 5814 ft | 233 kts | 83° |
| 2026-05-09 15:16 | 40.55021 | -73.75648 | 6421 ft | 237 kts | 87° |
| 2026-05-09 15:16 | 40.55215 | -73.73475 | 7050 ft | 240 kts | 90° |
| 2026-05-09 15:16 | 40.55363 | -73.71300 | 7731 ft | 238 kts | 90° |